Time;durP1;ratioP1;P1;durP2;ratioP2;P2;SDS_P1;SDS_P2;PMS_P1;PMS_P2;Temp;Humidity;BMP_temperature;BMP_pressure;BME280_temperature;BME280_humidity;BME280_pressure;Samples;Min_cycle;Max_cycle;Signal;HPM_P1;HPM_P2
2022/09/21 00:02:10;;;;;;;3.92;3.17;;;;;;;28.68;22.93;98442.66;5070550;28;20486;-79
2022/09/21 00:04:36;;;;;;;3.70;2.67;;;;;;;28.86;22.56;98442.81;5069804;28;20033;-79
2022/09/21 00:07:02;;;;;;;3.50;2.35;;;;;;;28.65;23.01;98446.38;5068924;28;20516;-79
2022/09/21 00:09:28;;;;;;;2.85;2.50;;;;;;;28.92;22.36;98440.16;5063534;28;20044;-79
2022/09/21 00:11:55;;;;;;;3.42;2.60;;;;;;;29.07;22.30;98444.06;5066281;28;20443;-79
2022/09/21 00:14:22;;;;;;;3.58;2.17;;;;;;;29.22;21.83;98440.28;5067898;28;20401;-79
2022/09/21 00:16:48;;;;;;;3.30;2.50;;;;;;;29.25;22.03;98441.41;5069245;28;20085;-79
2022/09/21 00:19:15;;;;;;;3.40;2.20;;;;;;;29.36;21.76;98441.78;5069590;28;20119;-79
2022/09/21 00:21:41;;;;;;;2.45;2.25;;;;;;;29.27;21.58;98436.84;5069651;28;20484;-79
2022/09/21 00:24:07;;;;;;;3.17;2.17;;;;;;;29.28;21.66;98446.94;5069116;28;20033;-79
2022/09/21 00:26:34;;;;;;;3.38;2.25;;;;;;;29.19;21.80;98448.91;5063892;28;20036;-79
2022/09/21 00:29:02;;;;;;;2.60;2.13;;;;;;;29.25;22.04;98445.03;5066751;28;20020;-79
2022/09/21 00:31:29;;;;;;;3.15;2.65;;;;;;;29.27;22.19;98444.56;5067301;28;20035;-79
2022/09/21 00:33:57;;;;;;;2.72;1.90;;;;;;;28.92;22.42;98445.81;5065034;28;20072;-79
2022/09/21 00:36:24;;;;;;;3.17;2.03;;;;;;;28.96;22.29;98454.97;5064272;28;21266;-79
2022/09/21 00:38:53;;;;;;;4.03;2.47;;;;;;;28.86;22.36;98454.09;5070926;28;20025;-79
2022/09/21 00:41:19;;;;;;;2.47;2.03;;;;;;;28.69;22.30;98447.03;5070066;28;20410;-79
2022/09/21 00:44:07;;;;;;;2.50;2.28;;;;;;;28.58;22.55;98443.75;5068983;28;20185;-79
2022/09/21 00:46:35;;;;;;;4.15;2.67;;;;;;;28.33;22.99;98446.66;5068740;28;20501;-79
2022/09/21 00:49:02;;;;;;;3.63;2.63;;;;;;;27.95;23.07;98458.72;5072117;28;20087;-79
2022/09/21 00:51:28;;;;;;;4.50;2.72;;;;;;;27.68;23.49;98458.34;5070729;28;21688;-79
2022/09/21 00:54:00;;;;;;;3.28;2.33;;;;;;;27.33;24.54;98454.53;5068903;28;20490;-79
2022/09/21 00:56:27;;;;;;;4.65;3.22;;;;;;;27.04;24.85;98461.44;5066324;28;20036;-79
2022/09/21 00:58:53;;;;;;;7.00;3.55;;;;;;;27.13;24.55;98464.41;5079574;28;20040;-79
2022/09/21 01:01:20;;;;;;;3.88;2.55;;;;;;;27.34;24.39;98460.97;5073157;28;20548;-79
2022/09/21 01:03:49;;;;;;;4.32;3.42;;;;;;;27.46;24.38;98460.25;5072404;28;20508;-79
2022/09/21 01:06:18;;;;;;;6.03;2.78;;;;;;;27.53;24.12;98462.88;5070890;28;20037;-79
2022/09/21 01:08:51;;;;;;;5.45;3.45;;;;;;;27.50;24.16;98460.94;5070782;28;20024;-79
2022/09/21 01:11:58;;;;;;;5.97;3.33;;;;;;;27.08;24.56;98467.75;5067222;28;20541;-79
2022/09/21 01:14:48;;;;;;;4.93;3.78;;;;;;;27.29;24.69;98472.81;5059179;28;20048;-79
2022/09/21 01:17:24;;;;;;;5.18;3.20;;;;;;;27.38;24.55;98468.13;5067955;28;20032;-79
2022/09/21 01:20:14;;;;;;;4.55;3.38;;;;;;;27.57;24.23;98466.38;5077401;28;20044;-79
2022/09/21 01:23:09;;;;;;;6.30;3.55;;;;;;;27.37;24.45;98475.03;5068749;28;20430;-79
2022/09/21 01:26:03;;;;;;;6.10;4.10;;;;;;;26.05;26.83;98469.56;5062040;28;20032;-79
2022/09/21 01:28:47;;;;;;;4.18;3.42;;;;;;;26.56;25.85;98470.75;5070251;28;20087;-79
2022/09/21 01:31:20;;;;;;;6.38;4.32;;;;;;;26.83;25.80;98476.13;5061697;28;20032;-79
2022/09/21 01:33:51;;;;;;;7.32;5.70;;;;;;;25.97;26.99;98476.63;5066917;28;20441;-79
2022/09/21 01:36:23;;;;;;;6.80;4.88;;;;;;;25.75;27.10;98481.13;5070435;28;20430;-79
2022/09/21 01:38:55;;;;;;;7.65;5.50;;;;;;;26.61;26.21;98473.81;5067976;28;20040;-79
2022/09/21 01:41:25;;;;;;;6.88;4.50;;;;;;;26.58;26.35;98474.69;5065428;28;20048;-79
2022/09/21 01:43:56;;;;;;;6.05;4.68;;;;;;;26.71;26.23;98471.97;5071129;28;20520;-79
2022/09/21 01:46:26;;;;;;;;;;;;;;;27.33;25.27;98470.66;5062292;28;20052;-79
2022/09/21 01:48:58;;;;;;;6.88;5.65;;;;;;;26.59;26.59;98475.50;5062083;28;19919;-79
2022/09/21 01:51:27;;;;;;;5.22;4.70;;;;;;;26.23;27.26;98472.81;5068808;28;20123;-79
2022/09/21 01:54:03;;;;;;;9.57;6.15;;;;;;;25.94;27.31;98481.09;5058335;28;20401;-79
2022/09/21 01:56:37;;;;;;;9.80;5.78;;;;;;;26.17;26.83;98473.75;5065621;28;20021;-79
2022/09/21 01:59:07;;;;;;;8.98;6.78;;;;;;;26.06;27.32;98474.00;5065821;28;20037;-79
2022/09/21 02:01:39;;;;;;;8.48;5.70;;;;;;;26.39;27.00;98472.00;5062336;28;20040;-79
2022/09/21 02:04:11;;;;;;;9.05;5.38;;;;;;;26.00;27.54;98478.53;5066538;28;20041;-79
2022/09/21 02:06:41;;;;;;;7.80;5.28;;;;;;;25.89;27.73;98475.19;5064656;28;20024;-79
2022/09/21 02:09:09;;;;;;;8.67;7.00;;;;;;;26.41;26.90;98475.97;5064009;28;20032;-79
2022/09/21 02:11:42;;;;;;;8.40;6.18;;;;;;;26.17;27.11;98471.72;5066139;28;20070;-79
2022/09/21 02:14:21;;;;;;;8.45;6.45;;;;;;;26.79;26.45;98472.63;5064478;28;20029;-79
2022/09/21 02:17:06;;;;;;;9.77;5.68;;;;;;;27.24;26.04;98476.16;5062035;28;20490;-79
2022/09/21 02:19:44;;;;;;;8.20;6.00;;;;;;;27.03;26.12;98476.75;5065623;28;20045;-79
2022/09/21 02:22:34;;;;;;;6.10;4.68;;;;;;;26.96;26.18;98479.78;5066969;28;20060;-79
2022/09/21 02:25:19;;;;;;;9.27;5.28;;;;;;;27.10;25.88;98480.19;5070963;28;20257;-79
2022/09/21 02:27:53;;;;;;;10.35;6.35;;;;;;;26.21;27.24;98474.47;5071063;28;20036;-79
2022/09/21 02:30:22;;;;;;;5.05;4.50;;;;;;;25.88;28.00;98479.25;5062006;28;20068;-79
2022/09/21 02:33:16;;;;;;;17.33;9.25;;;;;;;26.36;27.02;98490.56;5061869;28;20035;-79
2022/09/21 02:35:53;;;;;;;9.55;6.88;;;;;;;26.41;27.14;98481.59;5064808;28;20435;-79
2022/09/21 02:38:31;;;;;;;11.50;7.95;;;;;;;26.06;27.81;98485.25;5060350;28;21644;-79
2022/09/21 02:41:17;;;;;;;10.40;8.25;;;;;;;26.39;26.93;98480.44;5061702;28;20044;-79
2022/09/21 02:44:00;;;;;;;7.30;6.07;;;;;;;25.57;28.24;98487.16;5064999;28;20028;-79
2022/09/21 02:46:36;;;;;;;8.50;6.10;;;;;;;25.93;27.99;98484.31;5067715;28;20055;-79
2022/09/21 02:49:08;;;;;;;9.55;7.38;;;;;;;26.32;27.01;98483.44;5062804;28;20062;-79
2022/09/21 02:51:42;;;;;;;8.55;6.90;;;;;;;26.58;26.84;98485.97;5018263;28;1205560;-79
2022/09/21 02:54:12;;;;;;;6.97;5.82;;;;;;;27.24;25.92;98482.59;5066029;28;20512;-79
2022/09/21 02:56:40;;;;;;;12.50;8.43;;;;;;;27.12;25.85;98491.03;5063088;28;20422;-79
2022/09/21 02:59:07;;;;;;;9.50;6.93;;;;;;;27.25;25.77;98484.19;5060856;28;20039;-79
2022/09/21 03:01:33;;;;;;;7.68;6.18;;;;;;;26.89;26.09;98491.25;5061425;28;20790;-79
2022/09/21 03:04:00;;;;;;;10.23;7.72;;;;;;;26.90;26.23;98496.44;5061650;28;20067;-79
2022/09/21 03:06:26;;;;;;;8.32;6.15;;;;;;;27.18;25.94;98498.50;5063285;28;20064;-79
2022/09/21 03:08:52;;;;;;;7.22;5.65;;;;;;;26.24;27.27;98493.28;5067321;28;20033;-79
2022/09/21 03:11:22;;;;;;;10.38;7.55;;;;;;;25.68;28.05;98498.97;5061216;28;20090;-79
2022/09/21 03:13:48;;;;;;;10.68;8.70;;;;;;;26.03;27.29;98497.38;5062713;28;22247;-79
2022/09/21 03:16:15;;;;;;;11.52;9.80;;;;;;;25.20;28.73;98505.16;5063580;28;20115;-79
2022/09/21 03:18:42;;;;;;;16.52;12.48;;;;;;;25.26;28.59;98506.25;5062931;28;20045;-79
2022/09/21 03:21:10;;;;;;;10.45;8.50;;;;;;;25.46;28.49;98509.09;5072058;28;20045;-79
2022/09/21 03:23:36;;;;;;;15.85;10.48;;;;;;;24.95;29.41;98502.03;5068179;28;20079;-79
2022/09/21 03:26:02;;;;;;;10.35;7.55;;;;;;;25.38;28.62;98510.41;5055215;28;20116;-79
2022/09/21 03:28:28;;;;;;;10.95;7.95;;;;;;;25.46;28.48;98508.28;5073864;28;20036;-79
2022/09/21 03:30:54;;;;;;;10.20;7.82;;;;;;;25.72;28.06;98508.09;5073694;28;20030;-79
2022/09/21 03:33:20;;;;;;;14.25;11.40;;;;;;;25.88;27.47;98505.34;5063128;28;20036;-79
2022/09/21 03:35:50;;;;;;;15.95;11.52;;;;;;;25.58;27.84;98504.81;5061639;28;20043;-79
2022/09/21 03:38:17;;;;;;;9.27;7.47;;;;;;;25.31;28.80;98511.34;5072428;28;20028;-79
2022/09/21 03:40:47;;;;;;;9.20;6.90;;;;;;;25.41;28.97;98518.75;5070318;28;20064;-79
2022/09/21 03:43:14;;;;;;;12.00;8.52;;;;;;;26.26;27.16;98519.75;5071370;28;20440;-79
2022/09/21 03:45:41;;;;;;;13.35;9.25;;;;;;;26.21;26.93;98523.09;5073358;28;20024;-79
2022/09/21 03:48:08;;;;;;;11.57;8.02;;;;;;;25.05;28.99;98519.91;5073464;28;20036;-79
2022/09/21 03:50:35;;;;;;;11.30;7.45;;;;;;;25.75;27.80;98521.31;5070933;28;20134;-79
2022/09/21 03:53:01;;;;;;;8.85;7.75;;;;;;;26.06;27.48;98525.44;5068088;28;20406;-79
2022/09/21 03:55:28;;;;;;;13.48;10.82;;;;;;;25.26;28.45;98528.72;5063360;28;20086;-79
2022/09/21 03:57:54;;;;;;;13.35;8.52;;;;;;;25.29;28.87;98532.69;5061901;28;20047;-79
2022/09/21 04:00:21;;;;;;;11.32;9.30;;;;;;;25.66;27.87;98531.56;5058354;28;20107;-79
2022/09/21 04:02:47;;;;;;;12.57;10.13;;;;;;;25.49;28.20;98530.69;5062143;28;20028;-79
2022/09/21 04:05:15;;;;;;;12.38;10.25;;;;;;;25.54;28.18;98527.38;5064526;28;20525;-79
2022/09/21 04:07:44;;;;;;;13.52;10.63;;;;;;;25.54;28.11;98535.03;5064590;28;20021;-79
2022/09/21 04:10:12;;;;;;;14.32;11.13;;;;;;;25.53;28.07;98533.44;5058647;28;20061;-79
2022/09/21 04:12:42;;;;;;;14.18;9.40;;;;;;;25.69;27.85;98541.94;5064517;28;20110;-79
2022/09/21 04:15:10;;;;;;;8.80;7.13;;;;;;;25.03;29.09;98533.59;5058733;28;20414;-79
2022/09/21 04:17:36;;;;;;;11.38;9.05;;;;;;;25.09;28.87;98534.66;5064936;28;20063;-79
2022/09/21 04:20:03;;;;;;;11.02;8.13;;;;;;;25.60;28.58;98533.31;5064618;28;20115;-79
2022/09/21 04:22:30;;;;;;;9.25;7.90;;;;;;;25.32;28.66;98541.03;5059061;28;20031;-79
2022/09/21 04:24:56;;;;;;;12.35;8.82;;;;;;;24.75;29.34;98537.69;5066921;28;20032;-79
2022/09/21 04:27:23;;;;;;;12.80;9.18;;;;;;;24.73;29.88;98542.94;5060145;28;20024;-79
2022/09/21 04:29:49;;;;;;;17.08;11.82;;;;;;;25.24;28.74;98542.41;5061996;28;20036;-79
2022/09/21 04:32:15;;;;;;;12.15;8.60;;;;;;;25.20;28.80;98543.72;5058456;28;20032;-80
2022/09/21 04:34:41;;;;;;;10.95;9.70;;;;;;;24.88;29.67;98543.50;5059705;28;20045;-80
2022/09/21 04:37:08;;;;;;;11.70;9.05;;;;;;;24.86;29.29;98548.75;5057550;28;20029;-79
2022/09/21 04:39:35;;;;;;;12.70;9.93;;;;;;;25.52;28.15;98548.72;5061791;28;20120;-79
2022/09/21 04:42:01;;;;;;;12.75;10.05;;;;;;;25.20;28.95;98549.34;5062889;28;20036;-78
2022/09/21 04:44:29;;;;;;;12.73;8.50;;;;;;;25.45;28.63;98557.31;5058493;28;20025;-79
2022/09/21 04:46:55;;;;;;;15.10;11.68;;;;;;;24.61;29.82;98551.97;5065845;28;20049;-79
2022/09/21 04:49:21;;;;;;;13.52;10.38;;;;;;;24.03;30.96;98561.66;5064942;28;20043;-79
2022/09/21 04:51:48;;;;;;;15.07;10.82;;;;;;;24.66;29.83;98555.09;5059997;28;20052;-79
2022/09/21 04:54:14;;;;;;;11.90;9.40;;;;;;;24.88;29.53;98557.56;5062800;28;20032;-79
2022/09/21 04:56:40;;;;;;;12.65;9.60;;;;;;;25.15;29.00;98564.69;5059216;28;20024;-79
2022/09/21 04:59:06;;;;;;;11.77;9.52;;;;;;;25.86;27.69;98563.25;5068597;28;20033;-79
2022/09/21 05:01:33;;;;;;;13.82;10.63;;;;;;;25.15;29.01;98570.28;5072324;28;20062;-79
2022/09/21 05:04:01;;;;;;;14.18;10.38;;;;;;;25.50;28.79;98562.44;5070852;28;20071;-79
2022/09/21 05:06:31;;;;;;;12.57;7.97;;;;;;;25.86;28.02;98564.06;5052852;28;20383;-79
2022/09/21 05:11:43;;;;;;;11.60;9.70;;;;;;;25.16;29.04;98566.25;5052690;28;20052;-79
2022/09/21 05:14:10;;;;;;;11.57;9.63;;;;;;;25.04;29.41;98564.06;5058795;28;20181;-79
2022/09/21 05:16:36;;;;;;;15.05;10.52;;;;;;;24.94;29.25;98570.69;5069924;28;20044;-79
2022/09/21 05:19:03;;;;;;;10.57;8.85;;;;;;;25.46;28.89;98570.16;5070602;28;20053;-79
2022/09/21 05:21:30;;;;;;;13.25;10.40;;;;;;;24.76;29.50;98564.59;5070298;28;20117;-79
2022/09/21 05:23:57;;;;;;;11.38;8.93;;;;;;;24.57;30.23;98568.06;5072741;28;20039;-79
2022/09/21 05:26:23;;;;;;;11.95;9.32;;;;;;;25.66;28.57;98566.09;5071414;28;20029;-80
2022/09/21 05:28:50;;;;;;;10.20;8.18;;;;;;;25.83;28.20;98566.97;5064821;28;20035;-79
2022/09/21 05:31:38;;;;;;;14.70;9.63;;;;;;;26.26;27.44;98573.25;5072413;28;20036;-79
2022/09/21 05:34:36;;;;;;;16.90;11.88;;;;;;;25.92;27.87;98561.53;5074723;28;20047;-79
2022/09/21 05:37:39;;;;;;;11.43;8.85;;;;;;;26.28;27.22;98567.97;5074484;28;20494;-79
2022/09/21 05:40:08;;;;;;;13.85;10.25;;;;;;;25.72;28.22;98566.41;5087507;28;20119;-77
2022/09/21 05:42:35;;;;;;;7.95;6.85;;;;;;;26.16;27.73;98570.69;5075617;28;20031;-77
2022/09/21 05:45:01;;;;;;;9.38;8.38;;;;;;;26.21;27.34;98573.00;5075248;28;20032;-77
2022/09/21 05:47:45;;;;;;;10.93;8.27;;;;;;;26.04;27.82;98583.38;5070737;28;20024;-77
2022/09/21 05:50:34;;;;;;;10.68;8.82;;;;;;;26.24;27.25;98578.53;5070883;28;20127;-77
2022/09/21 05:53:28;;;;;;;9.68;8.52;;;;;;;25.70;27.98;98575.25;5088608;28;20074;-80
2022/09/21 05:56:01;;;;;;;8.82;6.97;;;;;;;25.90;27.84;98566.81;5082765;28;20040;-79
2022/09/21 05:58:46;;;;;;;7.63;6.13;;;;;;;26.00;27.72;98577.81;5095863;28;20036;-80
2022/09/21 06:01:20;;;;;;;8.93;7.85;;;;;;;26.30;27.15;98593.66;5096157;28;20051;-79
2022/09/21 06:03:48;;;;;;;9.93;7.65;;;;;;;26.03;27.54;98585.41;5076479;28;20037;-79
2022/09/21 06:06:18;;;;;;;11.93;8.70;;;;;;;25.69;28.66;98592.56;5075809;28;20037;-80
2022/09/21 06:08:44;;;;;;;9.68;8.13;;;;;;;25.62;28.42;98599.13;5075575;28;20113;-80
2022/09/21 06:11:10;;;;;;;9.18;7.65;;;;;;;25.27;29.20;98588.56;5073972;28;20036;-79
2022/09/21 06:13:36;;;;;;;10.35;8.07;;;;;;;25.83;28.52;98592.28;5061571;28;20517;-80
2022/09/21 06:16:03;;;;;;;8.05;6.88;;;;;;;25.42;28.89;98593.47;5065267;28;20020;-80
2022/09/21 06:18:30;;;;;;;10.20;8.23;;;;;;;25.14;29.64;98596.00;5070023;28;20037;-79
2022/09/21 06:20:56;;;;;;;9.93;8.73;;;;;;;25.31;29.35;98595.69;5075404;28;20078;-79
2022/09/21 06:23:22;;;;;;;10.63;9.50;;;;;;;25.47;28.88;98594.22;5074133;28;20041;-80
2022/09/21 06:25:53;;;;;;;9.88;7.93;;;;;;;25.96;28.25;98591.19;5074864;28;20032;-79
2022/09/21 06:28:20;;;;;;;8.70;7.25;;;;;;;25.53;28.60;98598.91;5074004;28;20056;-80
2022/09/21 06:30:54;;;;;;;10.88;8.57;;;;;;;25.81;28.47;98606.75;5059824;28;20039;-79
2022/09/21 06:33:22;;;;;;;10.50;8.73;;;;;;;25.91;28.22;98599.31;5061671;28;20378;-79
2022/09/21 06:35:56;;;;;;;9.43;8.20;;;;;;;25.72;28.50;98605.78;5074952;28;20028;-79
2022/09/21 06:38:24;;;;;;;9.35;8.02;;;;;;;25.36;29.66;98609.25;5075002;28;20111;-80
2022/09/21 06:40:51;;;;;;;10.82;8.75;;;;;;;25.97;28.36;98611.69;5074792;28;20465;-77
2022/09/21 06:43:17;;;;;;;9.30;7.55;;;;;;;25.81;28.67;98606.75;5073928;28;20033;-77
2022/09/21 06:45:51;;;;;;;11.57;9.07;;;;;;;25.71;28.51;98607.78;5073711;28;20108;-80
2022/09/21 06:48:17;;;;;;;9.75;8.73;;;;;;;25.12;29.75;98610.50;5070324;28;20036;-80
2022/09/21 06:50:43;;;;;;;12.30;8.73;;;;;;;25.60;28.69;98614.84;5074538;28;20094;-80
2022/09/21 06:53:09;;;;;;;9.35;8.00;;;;;;;25.64;28.91;98624.81;5074708;28;20032;-80
2022/09/21 06:55:35;;;;;;;14.40;12.15;;;;;;;26.18;27.62;98625.31;5074184;28;20024;-80
2022/09/21 06:58:04;;;;;;;13.15;10.15;;;;;;;25.16;29.29;98619.63;5072592;28;20486;-79
2022/09/21 07:00:31;;;;;;;11.98;8.23;;;;;;;26.02;28.32;98625.25;5073418;28;20035;-80
2022/09/21 07:02:57;;;;;;;9.38;7.80;;;;;;;26.16;27.99;98619.34;5073825;28;20059;-80
2022/09/21 07:05:24;;;;;;;11.88;9.30;;;;;;;26.33;27.59;98623.78;5054436;28;20053;-80
2022/09/21 07:07:50;;;;;;;14.23;9.30;;;;;;;25.79;28.36;98628.16;5054359;28;20033;-79
2022/09/21 07:10:16;;;;;;;16.15;11.55;;;;;;;25.61;28.10;98625.66;5053822;28;20111;-80
2022/09/21 07:12:43;;;;;;;14.35;10.68;;;;;;;24.76;30.63;98631.97;5054426;28;20033;-80
2022/09/21 07:15:09;;;;;;;14.45;10.57;;;;;;;24.94;29.76;98638.09;5071422;28;20034;-80
2022/09/21 07:17:38;;;;;;;14.77;9.30;;;;;;;25.04;29.80;98630.72;5073834;28;20078;-80
2022/09/21 07:20:06;;;;;;;11.75;9.02;;;;;;;25.91;28.81;98633.09;5073033;28;20056;-80
2022/09/21 07:22:33;;;;;;;12.50;9.60;;;;;;;25.73;29.13;98638.28;5074382;28;20032;-80
2022/09/21 07:24:59;;;;;;;11.38;7.95;;;;;;;25.55;29.03;98637.84;5073669;28;20102;-80
2022/09/21 07:27:27;;;;;;;8.60;7.25;;;;;;;26.16;28.02;98632.63;5072975;28;20032;-80
2022/09/21 07:29:53;;;;;;;10.80;8.75;;;;;;;26.03;28.12;98643.69;5072963;28;20478;-80
2022/09/21 07:32:20;;;;;;;9.18;7.60;;;;;;;26.04;28.23;98643.25;5073995;28;20040;-80
2022/09/21 07:34:46;;;;;;;11.90;9.15;;;;;;;26.28;27.55;98643.22;5074002;28;20090;-80
2022/09/21 07:37:13;;;;;;;10.95;8.50;;;;;;;25.58;28.49;98645.44;5073142;28;20044;-80
2022/09/21 07:39:39;;;;;;;13.15;8.38;;;;;;;26.37;27.67;98646.22;5073388;28;20029;-80
2022/09/21 07:42:06;;;;;;;8.63;7.20;;;;;;;26.32;28.26;98655.19;5074051;28;20386;-80
2022/09/21 07:44:33;;;;;;;9.82;7.60;;;;;;;26.88;27.02;98647.47;5072841;28;20090;-80
2022/09/21 07:47:00;;;;;;;11.27;7.75;;;;;;;27.15;26.80;98645.97;5058114;28;20037;-80
2022/09/21 07:49:26;;;;;;;9.48;7.80;;;;;;;26.81;27.04;98645.63;5053678;28;20071;-80
2022/09/21 07:51:53;;;;;;;8.85;7.40;;;;;;;26.15;28.37;98653.53;5053549;28;20053;-80
2022/09/21 07:54:19;;;;;;;7.25;6.47;;;;;;;26.55;27.44;98649.44;5056925;28;20085;-80
2022/09/21 07:59:04;;;;;;;10.93;7.97;;;;;;;26.55;27.38;98644.59;5071998;28;20032;-80
2022/09/21 07:59:31;;;;;;;10.52;8.52;;;;;;;26.35;27.54;98643.06;5071599;28;20063;-79
2022/09/21 08:01:58;;;;;;;6.60;5.97;;;;;;;26.37;27.94;98647.00;5059832;28;20113;-80
2022/09/21 08:04:24;;;;;;;12.77;8.10;;;;;;;26.15;28.23;98648.69;5053877;28;20060;-77
2022/09/21 08:06:50;;;;;;;9.60;7.20;;;;;;;25.98;28.40;98652.66;5053379;28;20395;-79
2022/09/21 08:09:16;;;;;;;8.07;7.00;;;;;;;26.78;28.09;98656.97;5061130;28;20024;-80
2022/09/21 08:11:45;;;;;;;11.23;8.00;;;;;;;25.83;28.79;98654.19;5072728;28;20033;-80
2022/09/21 08:14:18;;;;;;;12.70;8.82;;;;;;;26.01;28.79;98652.59;5072692;28;20064;-80
2022/09/21 08:16:45;;;;;;;8.95;7.28;;;;;;;26.76;27.74;98654.59;5062348;28;20040;-80
2022/09/21 08:19:16;;;;;;;9.10;7.00;;;;;;;25.09;31.04;98658.31;5053275;28;20025;-80
2022/09/21 08:21:42;;;;;;;11.05;8.00;;;;;;;25.31;30.53;98659.53;5053086;28;20037;-77
2022/09/21 08:24:09;;;;;;;10.18;8.90;;;;;;;25.47;30.37;98661.69;5051811;28;20393;-77
2022/09/21 08:26:35;;;;;;;10.35;7.20;;;;;;;24.91;30.93;98666.25;5063547;28;20371;-77
2022/09/21 08:29:02;;;;;;;9.05;7.97;;;;;;;24.82;30.39;98668.78;5052981;28;20060;-77
2022/09/21 08:31:29;;;;;;;9.60;7.50;;;;;;;24.39;32.72;98665.78;5052935;28;20102;-77
2022/09/21 08:33:59;;;;;;;9.77;7.78;;;;;;;25.49;29.79;98667.66;5051798;28;20379;-77
2022/09/21 08:36:25;;;;;;;9.85;7.45;;;;;;;26.39;28.56;98664.28;5053147;28;20040;-77
2022/09/21 08:38:53;;;;;;;14.20;9.90;;;;;;;26.36;27.97;98662.31;5053178;28;20128;-77
2022/09/21 08:41:48;;;;;;;12.15;9.48;;;;;;;25.87;28.93;98661.31;5053153;28;20437;-77
2022/09/21 08:44:33;;;;;;;11.82;8.75;;;;;;;25.97;28.74;98665.16;5067541;28;20040;-77
2022/09/21 08:47:09;;;;;;;10.88;7.90;;;;;;;26.04;28.82;98665.00;5060261;28;20029;-77
2022/09/21 08:49:37;;;;;;;10.75;7.45;;;;;;;25.28;30.53;98675.25;5062687;28;20025;-77
2022/09/21 08:52:07;;;;;;;12.20;8.65;;;;;;;25.87;28.82;98674.59;5072499;28;20040;-77
2022/09/21 08:54:48;;;;;;;9.48;8.35;;;;;;;25.80;29.30;98677.53;5066722;28;20029;-77
2022/09/21 08:57:15;;;;;;;9.63;7.97;;;;;;;25.17;30.96;98680.25;5054877;28;20513;-77
2022/09/21 08:59:44;;;;;;;10.27;7.53;;;;;;;26.13;29.03;98665.25;5072455;28;20503;-77
2022/09/21 09:02:22;;;;;;;12.07;8.85;;;;;;;26.15;28.48;98673.25;5070370;28;20043;-77
2022/09/21 09:05:29;;;;;;;14.23;10.27;;;;;;;25.81;28.90;98665.84;5053242;28;20033;-77
2022/09/21 09:08:28;;;;;;;13.68;10.02;;;;;;;25.51;29.89;98677.28;5053473;28;20033;-77
2022/09/21 09:11:03;;;;;;;12.13;7.78;;;;;;;25.18;30.66;98681.06;5059045;28;20122;-77
2022/09/21 09:13:50;;;;;;;11.23;8.43;;;;;;;25.42;30.61;98677.81;5076602;28;20038;-77
2022/09/21 09:16:59;;;;;;;12.55;9.63;;;;;;;26.32;29.27;98672.06;5076568;28;20035;-77
2022/09/21 09:19:28;;;;;;;11.10;7.82;;;;;;;27.43;28.44;98669.84;5056832;28;20517;-77
2022/09/21 09:21:55;;;;;;;10.85;7.50;;;;;;;26.49;29.48;98670.91;5056417;28;20480;-77
2022/09/21 09:24:48;;;;;;;14.60;8.40;;;;;;;26.76;28.85;98665.88;5056215;28;20032;-77
2022/09/21 09:27:21;;;;;;;12.15;9.35;;;;;;;27.47;28.03;98669.78;5072219;28;20024;-77
2022/09/21 09:30:25;;;;;;;11.70;7.75;;;;;;;27.03;29.19;98668.44;5076104;28;20033;-77
2022/09/21 09:33:22;;;;;;;8.18;7.13;;;;;;;26.93;29.42;98663.88;5076184;28;20508;-78
2022/09/21 09:36:02;;;;;;;8.27;6.60;;;;;;;26.79;28.67;98676.28;5075930;28;20033;-77
2022/09/21 09:38:28;;;;;;;9.18;6.70;;;;;;;25.81;30.32;98673.50;5056525;28;20037;-77
2022/09/21 09:41:15;;;;;;;8.63;6.80;;;;;;;26.67;29.08;98674.91;5062970;28;20105;-77
2022/09/21 09:44:03;;;;;;;9.60;7.15;;;;;;;26.06;29.55;98668.97;5064570;28;20033;-77
2022/09/21 09:47:01;;;;;;;7.47;5.57;;;;;;;26.56;28.61;98673.53;5056158;28;20439;-77
2022/09/21 09:49:29;;;;;;;7.22;5.40;;;;;;;27.02;27.77;98678.94;5055622;28;20094;-77
2022/09/21 09:51:56;;;;;;;8.15;6.50;;;;;;;26.89;27.86;98674.41;5069257;28;20048;-77
2022/09/21 09:54:26;;;;;;;7.18;5.30;;;;;;;26.41;29.87;98670.25;5063665;28;20433;-77
2022/09/21 09:56:54;;;;;;;8.88;5.90;;;;;;;25.45;30.93;98673.38;5063182;28;20447;-77
2022/09/21 09:59:52;;;;;;;6.30;5.60;;;;;;;25.96;29.22;98674.81;5055987;28;20432;-77
2022/09/21 10:02:22;;;;;;;6.65;5.55;;;;;;;26.43;28.87;98673.44;5051337;28;20123;-77
2022/09/21 10:05:05;;;;;;;8.43;6.55;;;;;;;25.64;29.76;98675.44;5075247;28;20128;-77
2022/09/21 10:07:38;;;;;;;6.80;4.88;;;;;;;25.32;30.95;98669.56;5075521;28;20103;-77
2022/09/21 10:10:27;;;;;;;5.63;4.72;;;;;;;26.05;28.79;98672.19;5073796;28;20037;-77
2022/09/21 10:13:04;;;;;;;6.28;5.07;;;;;;;26.17;29.63;98680.03;5065802;28;20045;-77
2022/09/21 10:15:30;;;;;;;6.30;5.18;;;;;;;26.94;28.44;98674.69;5075409;28;20558;-79
2022/09/21 10:18:14;;;;;;;5.07;4.10;;;;;;;27.21;28.04;98680.84;5075200;28;20032;-80
2022/09/21 10:20:57;;;;;;;3.60;3.30;;;;;;;27.78;26.70;98674.53;5073864;28;20020;-79
2022/09/21 10:23:24;;;;;;;4.65;4.20;;;;;;;27.45;27.04;98678.66;5070112;28;20089;-80
2022/09/21 10:26:00;;;;;;;5.43;4.13;;;;;;;27.53;26.97;98673.63;5073184;28;20032;-79
2022/09/21 10:28:27;;;;;;;4.22;3.08;;;;;;;27.59;27.75;98672.63;5062305;28;20029;-80
2022/09/21 10:31:21;;;;;;;4.13;3.50;;;;;;;28.40;26.40;98681.63;5072876;28;20127;-80
2022/09/21 10:34:14;;;;;;;4.10;3.28;;;;;;;27.80;26.82;98680.53;5074912;28;20050;-80
2022/09/21 10:36:48;;;;;;;3.95;3.22;;;;;;;27.06;29.16;98676.81;5074932;28;20051;-80
2022/09/21 10:39:20;;;;;;;6.97;4.15;;;;;;;26.80;29.03;98682.69;5075042;28;20074;-77
2022/09/21 10:42:13;;;;;;;4.32;3.83;;;;;;;27.39;28.19;98675.59;5071333;28;20033;-77
2022/09/21 10:44:44;;;;;;;4.10;3.42;;;;;;;27.37;28.14;98675.25;5060660;28;20041;-77
2022/09/21 10:47:16;;;;;;;2.85;2.60;;;;;;;27.81;27.58;98679.31;5060608;28;20028;-77
2022/09/21 10:49:52;;;;;;;3.17;2.88;;;;;;;26.86;28.61;98669.66;5074472;28;20036;-77
2022/09/21 10:52:23;;;;;;;3.58;3.03;;;;;;;27.21;27.92;98674.44;5075068;28;20055;-80
2022/09/21 10:54:53;;;;;;;3.38;3.05;;;;;;;27.68;27.38;98666.38;5073725;28;20466;-80
2022/09/21 10:57:22;;;;;;;3.77;3.47;;;;;;;27.42;28.74;98663.41;5074711;28;20397;-80
2022/09/21 10:59:48;;;;;;;3.97;3.45;;;;;;;27.80;27.96;98676.91;5074409;28;20032;-77
2022/09/21 11:02:35;;;;;;;4.60;3.60;;;;;;;27.56;28.05;98670.72;5063209;28;20037;-77
2022/09/21 11:05:18;;;;;;;2.97;2.78;;;;;;;27.61;28.68;98672.22;5054283;28;20533;-77
2022/09/21 11:08:11;;;;;;;3.40;3.10;;;;;;;27.28;29.16;98660.94;5054241;28;20033;-77
2022/09/21 11:11:01;;;;;;;3.25;2.95;;;;;;;27.00;29.36;98672.91;5072136;28;20046;-77
2022/09/21 11:13:33;;;;;;;3.10;2.80;;;;;;;27.17;28.59;98668.88;5073525;28;20024;-77
2022/09/21 11:16:20;;;;;;;4.30;3.60;;;;;;;27.30;28.88;98669.75;5073623;28;20032;-78
2022/09/21 11:19:06;;;;;;;4.97;3.45;;;;;;;26.77;29.10;98663.84;5054806;28;20033;-77
2022/09/21 11:21:59;;;;;;;2.22;2.05;;;;;;;28.23;27.51;98666.03;5053826;28;20048;-77
2022/09/21 11:24:51;;;;;;;3.70;3.10;;;;;;;28.68;26.12;98669.50;5054275;28;20377;-77
2022/09/21 11:27:34;;;;;;;5.00;3.25;;;;;;;27.58;29.79;98659.78;5052802;28;20048;-77
2022/09/21 11:30:15;;;;;;;6.25;3.35;;;;;;;28.96;27.71;98664.19;5053751;28;20052;-77
2022/09/21 11:32:43;;;;;;;;;;;;;;;28.88;25.81;98662.81;5057041;28;20503;-78
2022/09/21 11:35:31;;;;;;;2.25;2.00;;;;;;;28.89;26.21;98656.75;5070019;28;20331;-77
2022/09/21 11:38:16;;;;;;;3.65;2.78;;;;;;;28.77;25.65;98653.91;5053732;28;20025;-77
2022/09/21 11:40:53;;;;;;;3.65;2.88;;;;;;;28.26;26.60;98659.50;5070226;28;20485;-77
2022/09/21 11:43:56;;;;;;;2.60;2.40;;;;;;;28.36;27.17;98658.34;5073624;28;20039;-77
2022/09/21 11:46:58;;;;;;;2.72;2.53;;;;;;;27.79;27.91;98659.22;5073118;28;20036;-77
2022/09/21 11:49:45;;;;;;;3.22;2.92;;;;;;;26.88;30.79;98656.72;5017419;28;20186;-79
2022/09/21 11:52:21;;;;;;;3.88;2.75;;;;;;;28.31;27.49;98655.31;5061824;28;20053;-80
2022/09/21 11:55:13;;;;;;;3.60;3.30;;;;;;;28.44;27.18;98664.59;5072830;28;20040;-80
2022/09/21 11:57:49;;;;;;;3.13;2.85;;;;;;;28.43;27.94;98658.16;5073395;28;20032;-77
2022/09/21 12:00:19;;;;;;;6.28;2.85;;;;;;;28.84;27.17;98650.84;5071822;28;20394;-78